• Join FlightAware (Why Join?)
  • Login
  • US Flag 
01:23PM EST


 

Airport Tracker/Info


-or-


 

Live Flight TrackerFlight Track Log ✈ EJA951 ✈ 15-Sep-2013 ✈ KFAR - KBFI

Flight Track Log - Related Links

Times and Time Zones

All times are in EDT time to prevent confusion due to time zone crossing. See the EJA951 flight status page for this flight to view local times or setup timezone preferences in your user account.

Time Position Orientation Groundspeed Altitude Reporting Facility
EDT Latitude Longitude Course Direction KTS MPH feet Rate Location/Type
10:54AM 46.9547 -96.8431 281° West 246 283 2,700  Level Minneapolis Center
10:55AM 46.9689 -96.9478 281° West 257 296 7,300 4,260 Climbing Minneapolis Center
10:56AM 46.9819 -97.0681 279° West 281 323 11,500 3,120 Climbing Minneapolis Center
10:57AM 46.9939 -97.1797 279° West 345 397 13,700 2,580 Climbing Minneapolis Center
10:58AM 47.0125 -97.3550 279° West 362 417 16,900 2,220 Climbing Minneapolis Center
10:59AM 47.0303 -97.5214 279° West 376 433 18,500 1,440 Climbing Minneapolis Center
11:00AM 47.0472 -97.6794 279° West 386 444 20,000 1,320 Climbing Minneapolis Center
11:01AM 47.0633 -97.8403 278° West 394 453 21,300 1,380 Climbing Minneapolis Center
11:02AM 47.0786 -98.0042 278° West 400 460 22,900 1,500 Climbing Minneapolis Center
11:03AM 47.0964 -98.1733 279° West 411 473 24,500 1,500 Climbing Minneapolis Center
11:04AM 47.1142 -98.3431 279° West 417 480 26,100 1,260 Climbing Minneapolis Center
11:05AM 47.1269 -98.4783 278° West 418 481 27,200 1,260 Climbing Minneapolis Center
11:06AM 47.1456 -98.6850 278° West 422 486 28,800 1,440 Climbing Minneapolis Center
11:07AM 47.1653 -98.9006 278° West 436 502 30,200 1,440 Climbing Minneapolis Center
11:08AM 47.1825 -99.0828 278° West 445 512 31,800 1,620 Climbing Minneapolis Center
11:09AM 47.1981 -99.2633 277° West 447 514 33,600 1,800 Climbing Minneapolis Center
11:10AM 47.2131 -99.4419 277° West 444 511 35,600 1,860 Climbing Minneapolis Center
11:11AM 47.2278 -99.6178 277° West 438 504 37,500 1,320 Climbing Minneapolis Center
11:12AM 47.2433 -99.7939 277° West 434 499 38,600 1,080 Climbing Minneapolis Center
11:13AM 47.2600 -100.0064 277° West 436 502 40,000 660 Climbing Minneapolis Center
11:15AM 47.2775 -100.2253 277° West 446 513 40,000  Level Minneapolis Center
11:16AM 47.2928 -100.4167 277° West 463 533 40,000  Level Minneapolis Center
11:17AM 47.3072 -100.6139 276° West 478 550 40,000  Level Minneapolis Center
11:18AM 47.3253 -100.8133 278° West 489 563 40,000  Level Minneapolis Center
11:19AM 47.3478 -101.0331 279° West 491 565 40,000  Level Minneapolis Center
11:20AM 47.3569 -101.2306 274° West 486 559 40,000  Level Minneapolis Center
11:21AM 47.3719 -101.4292 276° West 488 562 40,000  Level Minneapolis Center
11:22AM 47.3842 -101.5878 277° West 489 563 40,000  Level Minneapolis Center
11:23AM 47.3928 -101.8267 273° West 489 563 40,000  Level Minneapolis Center
11:24AM 47.4039 -102.0272 275° West 493 567 40,000  Level Minneapolis Center
11:25AM 47.4194 -102.2667 276° West 490 564 40,000  Level Minneapolis Center
11:26AM 47.4331 -102.4647 276° West 488 562 40,000  Level Minneapolis Center
11:27AM 47.4469 -102.7033 275° West 488 562 40,000  Level Minneapolis Center
11:28AM 47.4578 -102.9031 275° West 488 562 40,000  Level Minneapolis Center
11:29AM 47.4636 -103.0219 274° West 488 562 40,000  Level Salt Lake Center
11:30AM 47.4750 -103.2217 275° West 489 563 40,000  Level Salt Lake Center
11:31AM 47.4853 -103.4217 274° West 488 562 40,000  Level Salt Lake Center
11:32AM 47.4933 -103.6250 273° West 490 564 40,000  Level Salt Lake Center
11:33AM 47.5031 -103.8322 274° West 492 566 40,000  Level Salt Lake Center
11:34AM 47.5150 -104.0803 274° West 496 571 40,000  Level Salt Lake Center
11:35AM 47.5250 -104.2842 274° West 495 570 40,000  Level Salt Lake Center
11:36AM 47.5333 -104.4844 274° West 492 566 40,000  Level Salt Lake Center
11:37AM 47.5408 -104.6864 273° West 491 565 40,000  Level Salt Lake Center
11:38AM 47.5506 -104.8908 274° West 495 570 40,000  Level Salt Lake Center
11:39AM 47.5572 -105.0950 273° West 496 571 40,000  Level Salt Lake Center
11:40AM 47.5664 -105.2992 274° West 498 573 40,000  Level Salt Lake Center
11:41AM 47.5758 -105.5436 273° West 497 572 40,000  Level Salt Lake Center
11:42AM 47.5828 -105.7486 273° West 499 574 40,000  Level Salt Lake Center
11:43AM 47.5881 -105.9533 272° West 500 575 40,000  Level Salt Lake Center
11:44AM 47.5931 -106.1583 272° West 500 575 40,000  Level Salt Lake Center
11:45AM 47.5989 -106.3631 272° West 500 575 40,000  Level Salt Lake Center
11:46AM 47.6036 -106.5678 272° West 499 574 40,000 -60 Level Salt Lake Center
11:47AM 47.6086 -106.7728 272° West 498 573 39,900  Descending Salt Lake Center
11:48AM 47.6142 -107.0183 272° West 500 575 40,000  Climbing Salt Lake Center
11:49AM 47.6167 -107.2250 271° West 502 578 40,000  Level Salt Lake Center
11:50AM 47.6203 -107.4397 272° West 503 579 40,000  Level Salt Lake Center
11:51AM 47.6222 -107.6481 271° West 506 582 40,000  Level Salt Lake Center
11:52AM 47.6261 -107.8561 272° West 507 583 40,000  Level Salt Lake Center
11:53AM 47.6292 -108.0656 271° West 508 585 40,000  Level Salt Lake Center
11:54AM 47.6292 -108.2731 270° West 507 583 40,000  Level Salt Lake Center
11:56AM 47.6306 -108.4831 271° West 509 586 40,000  Level Salt Lake Center
11:57AM 47.6333 -108.7350 271° West 510 587 40,000  Level Salt Lake Center
11:58AM 47.6336 -108.9442 270° West 510 587 40,000  Level Salt Lake Center
11:59AM 47.6344 -109.1514 270° West 508 585 40,000  Level Salt Lake Center
12:00PM 47.6353 -109.3586 270° West 504 580 40,000  Level Salt Lake Center
12:01PM 47.6344 -109.5653 270° West 504 580 40,000  Level Salt Lake Center
12:02PM 47.6353 -109.7742 270° West 506 582 40,000  Level Salt Lake Center
12:03PM 47.6314 -110.0239 269° West 507 583 40,000  Level Salt Lake Center
12:04PM 47.6292 -110.2328 269° West 507 583 40,000  Level Salt Lake Center
12:05PM 47.6272 -110.4414 269° West 509 586 40,000  Level Salt Lake Center
12:06PM 47.6253 -110.6519 269° West 512 589 40,000  Level Salt Lake Center
12:07PM 47.6225 -110.8642 269° West 516 594 40,000 -60 Level Salt Lake Center
12:08PM 47.6203 -111.0769 269° West 518 596 39,900  Descending Salt Lake Center
12:09PM 47.6139 -111.3342 268° West 523 602 40,000  Climbing Salt Lake Center
12:10PM 47.6108 -111.5300 269° West 525 604 40,000  Level Salt Lake Center
12:11PM 47.6067 -111.7447 268° West 523 602 40,000  Level Salt Lake Center
12:12PM 47.6017 -111.9589 268° West 522 601 40,000  Level Salt Lake Center
12:13PM 47.5950 -112.2161 268° West 523 602 40,000  Level Salt Lake Center
12:14PM 47.5897 -112.4306 268° West 523 602 40,000  Level Salt Lake Center
12:15PM 47.5831 -112.6450 267° West 522 601 40,000  Level Salt Lake Center
12:16PM 47.5767 -112.8583 268° West 522 601 40,000  Level Salt Lake Center
12:17PM 47.5708 -113.0936 268° West 523 602 40,000  Level Salt Lake Center
12:18PM 47.5633 -113.3089 267° West 523 602 40,000  Level Salt Lake Center
12:19PM 47.5550 -113.5225 267° West 520 598 40,000  Level Salt Lake Center
12:20PM 47.5472 -113.7364 267° West 520 598 40,000  Level Salt Lake Center
12:21PM 47.5386 -113.9500 267° West 518 596 40,000  Level Salt Lake Center
12:22PM 47.5275 -114.2086 266° West 521 600 40,000  Level Salt Lake Center
12:23PM 47.5178 -114.4244 266° West 522 601 40,000  Level Salt Lake Center
12:24PM 47.5078 -114.6431 266° West 527 606 40,000  Level Salt Lake Center
12:25PM 47.4969 -114.8583 266° West 525 604 40,000  Level Salt Lake Center
12:26PM 47.4881 -115.0717 267° West 521 600 40,000  Level Salt Lake Center
12:28PM 47.4767 -115.2825 266° West 516 594 40,000  Level Salt Lake Center
12:29PM 47.4647 -115.4936 265° West 515 593 40,000  Level Salt Lake Center
12:30PM 47.4583 -115.7053 268° West 516 594 40,000  Level Salt Lake Center
12:31PM 47.4761 -115.9589 276° West 518 596 40,000  Level Salt Lake Center
12:32PM 47.4878 -116.1636 275° West 519 597 40,000  Level Salt Lake Center
12:33PM 47.4994 -116.3739 275° West 518 596 40,000  Level Salt Lake Center
12:34PM 47.5175 -116.6683 275° West 516 594 40,000  Level Seattle Center
12:35PM 47.5375 -116.8767 278° West 512 589 40,000  Level Seattle Center
12:36PM 47.5581 -117.0983 278° West 520 598 40,000  Level Seattle Center
12:37PM 47.5772 -117.3219 277° West 520 598 40,000  Level Seattle Center
12:38PM 47.5967 -117.5311 278° West 515 593 40,000  Level Seattle Center
12:39PM 47.6142 -117.7422 277° West 516 594 40,000  Level Seattle Center
12:40PM 47.6325 -117.9522 277° West 517 595 40,000  Level Seattle Center
12:41PM 47.6494 -118.1639 277° West 517 595 40,000  Level Seattle Center
12:42PM 47.6650 -118.3733 276° West 514 592 40,000  Level Seattle Center
12:43PM 47.6822 -118.5825 277° West 514 592 40,000  Level Seattle Center
12:44PM 47.6972 -118.7917 276° West 512 589 40,000  Level Seattle Center
12:45PM 47.7122 -118.9992 276° West 507 583 40,000  Level Seattle Center
12:46PM 47.7289 -119.2078 277° West 509 586 40,000 -60 Level Seattle Center
12:47PM 47.7431 -119.4175 276° West 512 589 39,900 -1,140 Descending Seattle Center
12:48PM 47.7572 -119.6281 276° West 514 592 37,700 -2,460 Descending Seattle Center
12:49PM 47.7711 -119.8372 276° West 513 590 35,000 -3,000 Descending Seattle Center
12:50PM 47.7881 -120.0989 276° West 535 616 31,600 -3,120 Descending Seattle Center
12:51PM 47.8008 -120.3219 275° West 543 625 28,700 -2,760 Descending Seattle Center
12:52PM 47.8208 -120.5378 278° West 532 612 26,000 -2,700 Descending Seattle Center
12:53PM 47.8311 -120.7461 274° West 513 590 23,300 -2,760 Descending Seattle Center
12:54PM 47.8350 -120.8783 273° West 489 563 21,600 -2,580 Descending Seattle Center
12:54PM 47.8436 -120.9528 280° West 481 554 20,700 -2,340 Descending Seattle Center
12:55PM 47.8464 -121.0478 273° West 455 524 19,500 -2,400 Descending Seattle Center
12:55PM 47.8531 -121.1369 276° West 456 525 18,300 -2,460 Descending Seattle Center
12:56PM 47.8564 -121.2478 273° West 445 512 16,800 -2,220 Descending Seattle Center
12:56PM 47.8625 -121.3144 278° West 430 495 16,100 -1,980 Descending Seattle Center
12:57PM 47.8667 -121.3981 274° West 380 437 15,000 -1,980 Descending Seattle Center
12:57PM 47.8717 -121.4667 276° West 375 432 14,100 -1,980 Descending Seattle Center
12:58PM 47.8753 -121.5425 274° West 335 386 13,000 -1,680 Descending Seattle Center
12:58PM 47.8797 -121.6039 276° West 338 389 12,400 -1,680 Descending Seattle Center
12:59PM 47.8781 -121.6833 268° West 306 352 11,300 -1,680 Descending Seattle Center
12:59PM 47.8669 -121.7231 247° West 296 341 10,700 -1,200 Descending Seattle Center
01:00PM 47.8333 -121.7781 228° Southwest 280 322 10,100 -900 Descending Seattle Center
01:00PM 47.8017 -121.8169 220° Southwest 278 320 9,800 -1,140 Descending Seattle Center
01:01PM 47.7822 -121.8567 234° Southwest 266 306 9,000 -1,620 Descending Seattle Center
01:01PM 47.7833 -121.9192 272° West 282 325 8,200 -1,620 Descending Seattle Center
01:02PM 47.7856 -121.9739 273° West 282 325 7,400 -1,020 Descending Seattle Center
01:02PM 47.7878 -122.0403 273° West 275 316 7,200 -840 Descending Seattle Center
01:03PM 47.7906 -122.0800 276° West 235 270 6,600 -1,500 Descending Seattle Center
01:03PM 47.8042 -122.1275 293° West 243 280 5,700 -1,680 Descending Seattle Center
01:04PM 47.8347 -122.1411 343° North 221 254 4,800 -1,620 Descending Seattle Center
01:05PM 47.8481 -122.1650 310° West 223 257 4,100 -1,800 Descending Seattle Center
01:05PM 47.8481 -122.2197 270° West 233 268 3,200 -1,020 Descending Seattle Center
01:06PM 47.8500 -122.2542 275° West 218 251 3,100 -120 Descending Seattle Center
01:06PM 47.8514 -122.3036 272° West 205 236 3,100  Level Seattle Center
01:07PM 47.8517 -122.3386 271° West 209 241 3,100  Level Seattle Center
01:07PM 47.8489 -122.3908 265° West 209 241 3,100  Level Seattle Center
01:08PM 47.8236 -122.4233 221° Southwest 204 235 3,100 -600 Level Seattle Center
01:08PM 47.8011 -122.4569 225° Southwest 203 234 2,500 -840 Descending Seattle Center
01:09PM 47.7808 -122.4697 203° Southwest 193 222 2,300 -240 Descending Seattle Center
01:09PM 47.7533 -122.4703 181° South 186 214 2,300  Level Seattle Center
01:10PM 47.7297 -122.4647 171° South 187 215 2,300  Level Seattle Center
01:10PM 47.7022 -122.4522 163° South 195 224 2,300  Level Seattle Center
01:11PM 47.6817 -122.4328 148° Southeast 189 217 2,300  Level Seattle Center
01:11PM 47.6564 -122.4117 151° Southeast 195 224 2,300 -120 Level Seattle Center
01:12PM 47.6358 -122.3936 149° Southeast 191 220 2,200 -480 Descending Seattle Center
01:12PM 47.6167 -122.3778 151° Southeast 179 206 1,900 -840 Descending Seattle Center
01:13PM 47.5947 -122.3581 149° Southeast 162 186 1,400 -840 Descending Seattle Center
01:13PM 47.5825 -122.3472 149° Southeast 142 163 1,100 -840 Descending Seattle Center
01:14PM 47.5639 -122.3314 150° Southeast 132 152 600 -720 Descending Seattle Center
01:14PM 47.5542 -122.3236 152° Southeast 143 165 400 -540 Descending Seattle Center
01:15PM 47.5369 -122.3081 149° Southeast 124 143 100 -540 Descending Seattle Center